sensor_id;sensor_type;location;lat;lon;timestamp;P1;durP1;ratioP1;P2;durP2;ratioP2
70148;SDS011;57514;52.164;5.282;2023-02-21T00:00:41;37.03;;;16.70;;
70148;SDS011;57514;52.164;5.282;2023-02-21T00:03:27;41.10;;;17.50;;
70148;SDS011;57514;52.164;5.282;2023-02-21T00:06:12;26.38;;;12.05;;
70148;SDS011;57514;52.164;5.282;2023-02-21T00:08:58;40.28;;;18.70;;
70148;SDS011;57514;52.164;5.282;2023-02-21T00:11:44;38.50;;;16.15;;
70148;SDS011;57514;52.164;5.282;2023-02-21T00:14:29;36.60;;;16.00;;
70148;SDS011;57514;52.164;5.282;2023-02-21T00:17:15;40.10;;;18.27;;
70148;SDS011;57514;52.164;5.282;2023-02-21T00:20:02;34.35;;;15.23;;
70148;SDS011;57514;52.164;5.282;2023-02-21T00:22:48;33.72;;;15.05;;
70148;SDS011;57514;52.164;5.282;2023-02-21T00:25:34;39.03;;;17.60;;
70148;SDS011;57514;52.164;5.282;2023-02-21T00:28:20;40.60;;;18.25;;
70148;SDS011;57514;52.164;5.282;2023-02-21T00:31:05;33.25;;;14.80;;
70148;SDS011;57514;52.164;5.282;2023-02-21T00:33:51;43.45;;;17.58;;
70148;SDS011;57514;52.164;5.282;2023-02-21T00:36:39;32.65;;;16.13;;
70148;SDS011;57514;52.164;5.282;2023-02-21T00:39:25;45.20;;;17.38;;
70148;SDS011;57514;52.164;5.282;2023-02-21T00:42:11;42.45;;;19.08;;
70148;SDS011;57514;52.164;5.282;2023-02-21T00:44:57;45.72;;;19.08;;
70148;SDS011;57514;52.164;5.282;2023-02-21T00:47:42;42.22;;;16.73;;
70148;SDS011;57514;52.164;5.282;2023-02-21T00:50:28;32.45;;;15.10;;
70148;SDS011;57514;52.164;5.282;2023-02-21T00:53:14;43.65;;;19.42;;
70148;SDS011;57514;52.164;5.282;2023-02-21T00:55:59;38.70;;;19.05;;
70148;SDS011;57514;52.164;5.282;2023-02-21T00:58:47;38.60;;;16.50;;
70148;SDS011;57514;52.164;5.282;2023-02-21T01:01:32;39.75;;;16.60;;
70148;SDS011;57514;52.164;5.282;2023-02-21T01:04:18;44.97;;;19.83;;
70148;SDS011;57514;52.164;5.282;2023-02-21T01:07:05;45.03;;;17.63;;
70148;SDS011;57514;52.164;5.282;2023-02-21T01:09:51;41.03;;;17.90;;
70148;SDS011;57514;52.164;5.282;2023-02-21T01:12:36;42.58;;;18.13;;
70148;SDS011;57514;52.164;5.282;2023-02-21T01:15:22;41.05;;;17.52;;
70148;SDS011;57514;52.164;5.282;2023-02-21T01:18:08;43.17;;;19.45;;
70148;SDS011;57514;52.164;5.282;2023-02-21T01:20:54;41.60;;;17.42;;
70148;SDS011;57514;52.164;5.282;2023-02-21T01:23:40;40.88;;;17.58;;
70148;SDS011;57514;52.164;5.282;2023-02-21T01:26:26;35.67;;;14.48;;
70148;SDS011;57514;52.164;5.282;2023-02-21T01:29:12;50.58;;;20.65;;
70148;SDS011;57514;52.164;5.282;2023-02-21T01:31:58;36.95;;;16.15;;
70148;SDS011;57514;52.164;5.282;2023-02-21T01:34:44;35.38;;;15.68;;
70148;SDS011;57514;52.164;5.282;2023-02-21T01:37:30;46.42;;;19.65;;
70148;SDS011;57514;52.164;5.282;2023-02-21T01:40:16;47.30;;;20.40;;
70148;SDS011;57514;52.164;5.282;2023-02-21T01:43:04;53.28;;;20.95;;
70148;SDS011;57514;52.164;5.282;2023-02-21T01:45:54;49.47;;;19.67;;
70148;SDS011;57514;52.164;5.282;2023-02-21T01:48:40;46.22;;;20.27;;
70148;SDS011;57514;52.164;5.282;2023-02-21T01:51:27;45.97;;;20.65;;
70148;SDS011;57514;52.164;5.282;2023-02-21T01:54:14;45.58;;;20.83;;
70148;SDS011;57514;52.164;5.282;2023-02-21T01:57:01;46.33;;;19.67;;
70148;SDS011;57514;52.164;5.282;2023-02-21T01:59:47;43.08;;;20.15;;
70148;SDS011;57514;52.164;5.282;2023-02-21T02:02:44;49.00;;;22.15;;
70148;SDS011;57514;52.164;5.282;2023-02-21T02:05:32;47.38;;;18.88;;
70148;SDS011;57514;52.164;5.282;2023-02-21T02:08:19;42.70;;;19.40;;
70148;SDS011;57514;52.164;5.282;2023-02-21T02:11:09;41.85;;;18.25;;
70148;SDS011;57514;52.164;5.282;2023-02-21T02:16:56;45.55;;;19.80;;
70148;SDS011;57514;52.164;5.282;2023-02-21T02:29:58;38.70;;;18.02;;
70148;SDS011;57514;52.164;5.282;2023-02-21T02:32:33;45.40;;;19.13;;
70148;SDS011;57514;52.164;5.282;2023-02-21T02:37:34;38.45;;;17.05;;
70148;SDS011;57514;52.164;5.282;2023-02-21T02:50:53;41.80;;;17.80;;
70148;SDS011;57514;52.164;5.282;2023-02-21T02:53:24;44.42;;;18.38;;
70148;SDS011;57514;52.164;5.282;2023-02-21T02:55:57;40.67;;;17.30;;
70148;SDS011;57514;52.164;5.282;2023-02-21T02:58:27;42.30;;;18.08;;
70148;SDS011;57514;52.164;5.282;2023-02-21T03:03:44;44.60;;;19.65;;
70148;SDS011;57514;52.164;5.282;2023-02-21T03:06:24;42.50;;;19.58;;
70148;SDS011;57514;52.164;5.282;2023-02-21T03:08:56;38.30;;;16.90;;
70148;SDS011;57514;52.164;5.282;2023-02-21T03:11:28;48.00;;;20.35;;
70148;SDS011;57514;52.164;5.282;2023-02-21T03:13:58;48.33;;;18.42;;
70148;SDS011;57514;52.164;5.282;2023-02-21T03:19:16;43.95;;;18.50;;
70148;SDS011;57514;52.164;5.282;2023-02-21T03:22:04;35.83;;;16.40;;
70148;SDS011;57514;52.164;5.282;2023-02-21T03:24:33;46.80;;;18.45;;
70148;SDS011;57514;52.164;5.282;2023-02-21T03:27:02;51.30;;;19.63;;
70148;SDS011;57514;52.164;5.282;2023-02-21T03:30:01;44.35;;;18.50;;
70148;SDS011;57514;52.164;5.282;2023-02-21T03:32:39;45.13;;;19.63;;
70148;SDS011;57514;52.164;5.282;2023-02-21T03:35:08;36.85;;;16.08;;
70148;SDS011;57514;52.164;5.282;2023-02-21T03:37:40;47.30;;;20.25;;
70148;SDS011;57514;52.164;5.282;2023-02-21T03:40:30;49.85;;;20.63;;
70148;SDS011;57514;52.164;5.282;2023-02-21T03:45:27;48.40;;;21.00;;
70148;SDS011;57514;52.164;5.282;2023-02-21T03:48:11;39.80;;;19.35;;
70148;SDS011;57514;52.164;5.282;2023-02-21T03:50:49;47.60;;;19.95;;
70148;SDS011;57514;52.164;5.282;2023-02-21T03:53:17;35.35;;;14.10;;
70148;SDS011;57514;52.164;5.282;2023-02-21T03:55:45;48.72;;;19.85;;
70148;SDS011;57514;52.164;5.282;2023-02-21T03:58:18;40.83;;;18.08;;
70148;SDS011;57514;52.164;5.282;2023-02-21T04:00:46;51.40;;;21.50;;
70148;SDS011;57514;52.164;5.282;2023-02-21T04:03:15;51.88;;;22.40;;
70148;SDS011;57514;52.164;5.282;2023-02-21T04:05:51;48.25;;;18.95;;
70148;SDS011;57514;52.164;5.282;2023-02-21T04:08:18;41.53;;;16.95;;
70148;SDS011;57514;52.164;5.282;2023-02-21T04:10:46;44.60;;;18.10;;
70148;SDS011;57514;52.164;5.282;2023-02-21T04:13:26;52.22;;;20.45;;
70148;SDS011;57514;52.164;5.282;2023-02-21T04:15:54;51.40;;;21.20;;
70148;SDS011;57514;52.164;5.282;2023-02-21T04:18:23;49.60;;;21.77;;
70148;SDS011;57514;52.164;5.282;2023-02-21T04:20:52;45.80;;;17.60;;
70148;SDS011;57514;52.164;5.282;2023-02-21T04:23:20;45.65;;;19.45;;
70148;SDS011;57514;52.164;5.282;2023-02-21T04:25:48;45.70;;;19.45;;
70148;SDS011;57514;52.164;5.282;2023-02-21T04:28:32;50.65;;;21.00;;
70148;SDS011;57514;52.164;5.282;2023-02-21T04:31:00;50.33;;;22.40;;
70148;SDS011;57514;52.164;5.282;2023-02-21T04:33:27;45.30;;;18.63;;
70148;SDS011;57514;52.164;5.282;2023-02-21T04:35:55;55.15;;;23.35;;
70148;SDS011;57514;52.164;5.282;2023-02-21T04:38:30;43.40;;;15.48;;
70148;SDS011;57514;52.164;5.282;2023-02-21T04:40:57;49.58;;;20.48;;
70148;SDS011;57514;52.164;5.282;2023-02-21T04:43:24;56.00;;;22.33;;
70148;SDS011;57514;52.164;5.282;2023-02-21T04:45:52;57.70;;;23.08;;
70148;SDS011;57514;52.164;5.282;2023-02-21T04:48:19;58.17;;;24.17;;
70148;SDS011;57514;52.164;5.282;2023-02-21T04:50:46;52.10;;;21.35;;
70148;SDS011;57514;52.164;5.282;2023-02-21T04:53:14;52.72;;;20.27;;
70148;SDS011;57514;52.164;5.282;2023-02-21T04:55:41;59.15;;;21.05;;
70148;SDS011;57514;52.164;5.282;2023-02-21T04:58:08;60.45;;;24.50;;
70148;SDS011;57514;52.164;5.282;2023-02-21T05:00:36;61.75;;;23.30;;
70148;SDS011;57514;52.164;5.282;2023-02-21T05:03:03;63.10;;;24.30;;
70148;SDS011;57514;52.164;5.282;2023-02-21T05:05:30;52.63;;;22.25;;
70148;SDS011;57514;52.164;5.282;2023-02-21T05:07:57;57.70;;;23.35;;
70148;SDS011;57514;52.164;5.282;2023-02-21T05:10:24;67.13;;;23.65;;
70148;SDS011;57514;52.164;5.282;2023-02-21T05:13:08;68.82;;;24.63;;
70148;SDS011;57514;52.164;5.282;2023-02-21T05:15:36;55.85;;;22.80;;
70148;SDS011;57514;52.164;5.282;2023-02-21T05:18:03;52.55;;;23.77;;
70148;SDS011;57514;52.164;5.282;2023-02-21T05:20:30;60.67;;;23.80;;
70148;SDS011;57514;52.164;5.282;2023-02-21T05:22:57;57.72;;;23.10;;
70148;SDS011;57514;52.164;5.282;2023-02-21T05:25:38;56.45;;;24.35;;
70148;SDS011;57514;52.164;5.282;2023-02-21T05:28:05;59.20;;;23.55;;
70148;SDS011;57514;52.164;5.282;2023-02-21T05:30:32;57.95;;;24.85;;
70148;SDS011;57514;52.164;5.282;2023-02-21T05:33:00;51.60;;;21.27;;
70148;SDS011;57514;52.164;5.282;2023-02-21T05:35:27;63.85;;;24.92;;
70148;SDS011;57514;52.164;5.282;2023-02-21T05:37:54;60.75;;;23.35;;
70148;SDS011;57514;52.164;5.282;2023-02-21T05:40:21;60.60;;;25.00;;
70148;SDS011;57514;52.164;5.282;2023-02-21T05:42:49;62.08;;;23.50;;
70148;SDS011;57514;52.164;5.282;2023-02-21T05:45:16;58.60;;;23.83;;
70148;SDS011;57514;52.164;5.282;2023-02-21T05:47:44;60.65;;;24.17;;
70148;SDS011;57514;52.164;5.282;2023-02-21T05:50:11;62.00;;;23.33;;
70148;SDS011;57514;52.164;5.282;2023-02-21T05:52:38;59.75;;;24.33;;
70148;SDS011;57514;52.164;5.282;2023-02-21T05:55:06;61.85;;;23.58;;
70148;SDS011;57514;52.164;5.282;2023-02-21T05:57:37;56.88;;;22.80;;
70148;SDS011;57514;52.164;5.282;2023-02-21T06:00:04;60.30;;;23.52;;
70148;SDS011;57514;52.164;5.282;2023-02-21T06:02:37;62.55;;;22.35;;
70148;SDS011;57514;52.164;5.282;2023-02-21T06:05:04;57.67;;;22.08;;
70148;SDS011;57514;52.164;5.282;2023-02-21T06:07:31;61.53;;;22.70;;
70148;SDS011;57514;52.164;5.282;2023-02-21T06:09:59;63.20;;;23.95;;
70148;SDS011;57514;52.164;5.282;2023-02-21T06:12:26;65.05;;;24.02;;
70148;SDS011;57514;52.164;5.282;2023-02-21T06:14:53;63.33;;;24.50;;
70148;SDS011;57514;52.164;5.282;2023-02-21T06:17:20;56.28;;;23.65;;
70148;SDS011;57514;52.164;5.282;2023-02-21T06:19:48;54.95;;;21.23;;
70148;SDS011;57514;52.164;5.282;2023-02-21T06:22:15;70.10;;;25.90;;
70148;SDS011;57514;52.164;5.282;2023-02-21T06:24:42;54.92;;;22.63;;
70148;SDS011;57514;52.164;5.282;2023-02-21T06:27:10;54.85;;;22.50;;
70148;SDS011;57514;52.164;5.282;2023-02-21T06:29:37;66.72;;;24.80;;
70148;SDS011;57514;52.164;5.282;2023-02-21T06:32:04;69.00;;;23.70;;
70148;SDS011;57514;52.164;5.282;2023-02-21T06:34:31;59.13;;;22.75;;
70148;SDS011;57514;52.164;5.282;2023-02-21T06:36:59;60.03;;;24.23;;
70148;SDS011;57514;52.164;5.282;2023-02-21T06:39:26;47.92;;;19.35;;
70148;SDS011;57514;52.164;5.282;2023-02-21T06:41:53;59.10;;;22.92;;
70148;SDS011;57514;52.164;5.282;2023-02-21T06:44:20;53.00;;;22.40;;
70148;SDS011;57514;52.164;5.282;2023-02-21T06:46:48;59.78;;;23.38;;
70148;SDS011;57514;52.164;5.282;2023-02-21T06:49:15;57.28;;;22.63;;
70148;SDS011;57514;52.164;5.282;2023-02-21T06:51:43;66.10;;;23.77;;
70148;SDS011;57514;52.164;5.282;2023-02-21T06:54:10;68.80;;;25.42;;
70148;SDS011;57514;52.164;5.282;2023-02-21T06:56:37;53.00;;;20.15;;
70148;SDS011;57514;52.164;5.282;2023-02-21T06:59:04;46.50;;;19.42;;
70148;SDS011;57514;52.164;5.282;2023-02-21T07:01:32;63.88;;;24.00;;
70148;SDS011;57514;52.164;5.282;2023-02-21T07:03:59;62.00;;;22.15;;
70148;SDS011;57514;52.164;5.282;2023-02-21T07:06:26;70.90;;;25.65;;
70148;SDS011;57514;52.164;5.282;2023-02-21T07:08:55;65.35;;;23.45;;
70148;SDS011;57514;52.164;5.282;2023-02-21T07:11:22;75.43;;;25.98;;
70148;SDS011;57514;52.164;5.282;2023-02-21T07:13:50;51.50;;;20.23;;
70148;SDS011;57514;52.164;5.282;2023-02-21T07:16:18;38.60;;;15.23;;
70148;SDS011;57514;52.164;5.282;2023-02-21T07:18:45;65.47;;;24.92;;
70148;SDS011;57514;52.164;5.282;2023-02-21T07:21:13;38.95;;;16.50;;
70148;SDS011;57514;52.164;5.282;2023-02-21T07:23:44;59.42;;;21.08;;
70148;SDS011;57514;52.164;5.282;2023-02-21T07:28:38;45.60;;;16.55;;
70148;SDS011;57514;52.164;5.282;2023-02-21T07:31:06;58.08;;;23.48;;
70148;SDS011;57514;52.164;5.282;2023-02-21T07:33:33;56.28;;;22.60;;
70148;SDS011;57514;52.164;5.282;2023-02-21T07:36:00;57.20;;;21.23;;
70148;SDS011;57514;52.164;5.282;2023-02-21T07:38:28;71.03;;;25.90;;
70148;SDS011;57514;52.164;5.282;2023-02-21T07:40:57;75.07;;;28.15;;
70148;SDS011;57514;52.164;5.282;2023-02-21T07:43:25;68.43;;;26.35;;
70148;SDS011;57514;52.164;5.282;2023-02-21T07:45:52;76.30;;;27.50;;
70148;SDS011;57514;52.164;5.282;2023-02-21T07:48:20;81.55;;;28.63;;
70148;SDS011;57514;52.164;5.282;2023-02-21T07:50:47;52.80;;;20.15;;
70148;SDS011;57514;52.164;5.282;2023-02-21T07:53:15;62.70;;;23.00;;
70148;SDS011;57514;52.164;5.282;2023-02-21T07:55:42;71.75;;;27.80;;
70148;SDS011;57514;52.164;5.282;2023-02-21T07:58:10;75.97;;;25.60;;
70148;SDS011;57514;52.164;5.282;2023-02-21T08:00:37;71.88;;;25.40;;
70148;SDS011;57514;52.164;5.282;2023-02-21T08:03:05;78.40;;;26.45;;
70148;SDS011;57514;52.164;5.282;2023-02-21T08:05:33;78.07;;;28.75;;
70148;SDS011;57514;52.164;5.282;2023-02-21T08:08:00;86.13;;;28.33;;
70148;SDS011;57514;52.164;5.282;2023-02-21T08:10:27;71.43;;;25.30;;
70148;SDS011;57514;52.164;5.282;2023-02-21T08:12:54;68.60;;;25.88;;
70148;SDS011;57514;52.164;5.282;2023-02-21T08:15:22;80.30;;;27.92;;
70148;SDS011;57514;52.164;5.282;2023-02-21T08:17:49;63.88;;;20.67;;
70148;SDS011;57514;52.164;5.282;2023-02-21T08:20:17;81.25;;;29.27;;
70148;SDS011;57514;52.164;5.282;2023-02-21T08:22:44;70.30;;;24.95;;
70148;SDS011;57514;52.164;5.282;2023-02-21T08:25:12;66.90;;;20.95;;
70148;SDS011;57514;52.164;5.282;2023-02-21T08:27:40;72.63;;;26.70;;
70148;SDS011;57514;52.164;5.282;2023-02-21T08:30:08;77.78;;;26.17;;
70148;SDS011;57514;52.164;5.282;2023-02-21T08:32:36;71.30;;;24.83;;
70148;SDS011;57514;52.164;5.282;2023-02-21T08:35:04;73.53;;;27.73;;
70148;SDS011;57514;52.164;5.282;2023-02-21T08:37:32;84.28;;;28.50;;
70148;SDS011;57514;52.164;5.282;2023-02-21T08:40:02;89.70;;;30.02;;
70148;SDS011;57514;52.164;5.282;2023-02-21T08:42:29;75.35;;;25.10;;
70148;SDS011;57514;52.164;5.282;2023-02-21T08:44:56;81.85;;;29.48;;
70148;SDS011;57514;52.164;5.282;2023-02-21T08:47:24;85.80;;;28.02;;
70148;SDS011;57514;52.164;5.282;2023-02-21T08:49:51;68.55;;;23.50;;
70148;SDS011;57514;52.164;5.282;2023-02-21T08:52:18;92.80;;;29.33;;
70148;SDS011;57514;52.164;5.282;2023-02-21T08:54:48;63.38;;;23.88;;
70148;SDS011;57514;52.164;5.282;2023-02-21T08:57:16;73.28;;;26.88;;
70148;SDS011;57514;52.164;5.282;2023-02-21T08:59:43;81.90;;;28.08;;
70148;SDS011;57514;52.164;5.282;2023-02-21T09:02:14;76.10;;;25.58;;
70148;SDS011;57514;52.164;5.282;2023-02-21T09:04:42;87.38;;;28.73;;
70148;SDS011;57514;52.164;5.282;2023-02-21T09:07:13;92.85;;;29.63;;
70148;SDS011;57514;52.164;5.282;2023-02-21T09:09:40;58.40;;;21.08;;
70148;SDS011;57514;52.164;5.282;2023-02-21T09:12:08;87.68;;;29.23;;
70148;SDS011;57514;52.164;5.282;2023-02-21T09:14:36;85.10;;;27.08;;
70148;SDS011;57514;52.164;5.282;2023-02-21T09:17:04;76.45;;;26.42;;
70148;SDS011;57514;52.164;5.282;2023-02-21T09:19:31;82.63;;;28.02;;
70148;SDS011;57514;52.164;5.282;2023-02-21T09:21:58;91.55;;;29.45;;
70148;SDS011;57514;52.164;5.282;2023-02-21T09:24:27;83.93;;;26.85;;
70148;SDS011;57514;52.164;5.282;2023-02-21T09:26:54;77.72;;;25.30;;
70148;SDS011;57514;52.164;5.282;2023-02-21T09:29:25;81.70;;;27.80;;
70148;SDS011;57514;52.164;5.282;2023-02-21T09:31:59;81.90;;;28.45;;
70148;SDS011;57514;52.164;5.282;2023-02-21T09:34:27;80.65;;;26.27;;
70148;SDS011;57514;52.164;5.282;2023-02-21T09:36:55;82.50;;;28.63;;
70148;SDS011;57514;52.164;5.282;2023-02-21T09:39:23;82.43;;;28.73;;
70148;SDS011;57514;52.164;5.282;2023-02-21T09:41:50;79.80;;;25.73;;
70148;SDS011;57514;52.164;5.282;2023-02-21T09:44:22;76.38;;;23.05;;
70148;SDS011;57514;52.164;5.282;2023-02-21T09:46:55;83.32;;;28.02;;
70148;SDS011;57514;52.164;5.282;2023-02-21T09:49:24;80.45;;;26.05;;
70148;SDS011;57514;52.164;5.282;2023-02-21T09:51:52;65.32;;;21.98;;
70148;SDS011;57514;52.164;5.282;2023-02-21T09:54:29;78.88;;;26.30;;
70148;SDS011;57514;52.164;5.282;2023-02-21T09:56:59;72.85;;;24.25;;
70148;SDS011;57514;52.164;5.282;2023-02-21T09:59:27;62.95;;;22.27;;
70148;SDS011;57514;52.164;5.282;2023-02-21T10:01:56;68.53;;;25.05;;
70148;SDS011;57514;52.164;5.282;2023-02-21T10:09:40;72.63;;;25.08;;
70148;SDS011;57514;52.164;5.282;2023-02-21T10:22:37;85.32;;;23.98;;
70148;SDS011;57514;52.164;5.282;2023-02-21T10:27:48;71.90;;;24.58;;
70148;SDS011;57514;52.164;5.282;2023-02-21T10:30:26;77.35;;;25.55;;
70148;SDS011;57514;52.164;5.282;2023-02-21T10:32:55;47.88;;;17.75;;
70148;SDS011;57514;52.164;5.282;2023-02-21T10:35:23;80.43;;;26.17;;
70148;SDS011;57514;52.164;5.282;2023-02-21T10:37:55;68.95;;;25.40;;
70148;SDS011;57514;52.164;5.282;2023-02-21T10:40:33;72.53;;;25.73;;
70148;SDS011;57514;52.164;5.282;2023-02-21T10:45:45;57.42;;;20.42;;
70148;SDS011;57514;52.164;5.282;2023-02-21T10:48:13;68.13;;;27.00;;
70148;SDS011;57514;52.164;5.282;2023-02-21T10:58:36;64.82;;;22.35;;
70148;SDS011;57514;52.164;5.282;2023-02-21T11:01:14;72.63;;;24.25;;
70148;SDS011;57514;52.164;5.282;2023-02-21T11:03:48;67.18;;;25.27;;
70148;SDS011;57514;52.164;5.282;2023-02-21T11:06:30;72.25;;;23.88;;
70148;SDS011;57514;52.164;5.282;2023-02-21T11:08:58;70.00;;;23.27;;
70148;SDS011;57514;52.164;5.282;2023-02-21T11:11:37;56.92;;;20.63;;
70148;SDS011;57514;52.164;5.282;2023-02-21T11:14:06;61.60;;;22.15;;
70148;SDS011;57514;52.164;5.282;2023-02-21T11:16:33;67.57;;;23.25;;
70148;SDS011;57514;52.164;5.282;2023-02-21T11:19:05;73.03;;;25.00;;
70148;SDS011;57514;52.164;5.282;2023-02-21T11:21:33;69.57;;;25.35;;
70148;SDS011;57514;52.164;5.282;2023-02-21T11:24:01;39.58;;;11.95;;
70148;SDS011;57514;52.164;5.282;2023-02-21T11:26:29;65.35;;;21.27;;
70148;SDS011;57514;52.164;5.282;2023-02-21T11:29:05;63.88;;;21.20;;
70148;SDS011;57514;52.164;5.282;2023-02-21T11:31:34;65.65;;;23.17;;
70148;SDS011;57514;52.164;5.282;2023-02-21T11:34:03;75.85;;;27.48;;
70148;SDS011;57514;52.164;5.282;2023-02-21T11:36:31;72.28;;;26.10;;
70148;SDS011;57514;52.164;5.282;2023-02-21T11:39:01;66.55;;;21.98;;
70148;SDS011;57514;52.164;5.282;2023-02-21T11:41:37;69.55;;;24.15;;
70148;SDS011;57514;52.164;5.282;2023-02-21T11:44:25;70.35;;;24.75;;
70148;SDS011;57514;52.164;5.282;2023-02-21T11:51:59;85.28;;;26.00;;
70148;SDS011;57514;52.164;5.282;2023-02-21T11:54:28;77.47;;;25.10;;
70148;SDS011;57514;52.164;5.282;2023-02-21T11:57:04;70.10;;;21.70;;
70148;SDS011;57514;52.164;5.282;2023-02-21T11:59:42;75.55;;;23.70;;
70148;SDS011;57514;52.164;5.282;2023-02-21T12:10:30;77.70;;;23.08;;
70148;SDS011;57514;52.164;5.282;2023-02-21T12:20:59;82.18;;;26.70;;
70148;SDS011;57514;52.164;5.282;2023-02-21T12:26:31;62.95;;;21.92;;
70148;SDS011;57514;52.164;5.282;2023-02-21T12:39:37;57.63;;;21.02;;
70148;SDS011;57514;52.164;5.282;2023-02-21T12:51:09;67.25;;;22.88;;
70148;SDS011;57514;52.164;5.282;2023-02-21T12:53:20;67.32;;;23.83;;
70148;SDS011;57514;52.164;5.282;2023-02-21T12:56:05;52.42;;;18.88;;
70148;SDS011;57514;52.164;5.282;2023-02-21T13:03:58;56.05;;;19.35;;
70148;SDS011;57514;52.164;5.282;2023-02-21T13:11:57;53.92;;;17.90;;
70148;SDS011;57514;52.164;5.282;2023-02-21T13:14:34;67.45;;;22.88;;
70148;SDS011;57514;52.164;5.282;2023-02-21T13:17:03;59.65;;;21.23;;
70148;SDS011;57514;52.164;5.282;2023-02-21T13:19:31;52.83;;;18.38;;
70148;SDS011;57514;52.164;5.282;2023-02-21T13:22:10;47.45;;;17.35;;
70148;SDS011;57514;52.164;5.282;2023-02-21T13:24:52;46.72;;;16.52;;
70148;SDS011;57514;52.164;5.282;2023-02-21T13:32:36;46.33;;;15.32;;
70148;SDS011;57514;52.164;5.282;2023-02-21T13:35:06;46.17;;;16.45;;
70148;SDS011;57514;52.164;5.282;2023-02-21T13:37:34;43.20;;;15.75;;
70148;SDS011;57514;52.164;5.282;2023-02-21T13:42:43;42.33;;;15.20;;
70148;SDS011;57514;52.164;5.282;2023-02-21T13:45:17;44.20;;;15.77;;
70148;SDS011;57514;52.164;5.282;2023-02-21T13:55:39;41.05;;;14.75;;
70148;SDS011;57514;52.164;5.282;2023-02-21T14:08:27;39.00;;;14.85;;
70148;SDS011;57514;52.164;5.282;2023-02-21T14:13:32;33.33;;;13.55;;
70148;SDS011;57514;52.164;5.282;2023-02-21T14:16:24;36.70;;;12.90;;
70148;SDS011;57514;52.164;5.282;2023-02-21T14:19:00;37.67;;;14.35;;
70148;SDS011;57514;52.164;5.282;2023-02-21T14:21:29;42.80;;;15.35;;
70148;SDS011;57514;52.164;5.282;2023-02-21T14:24:03;39.95;;;14.38;;
70148;SDS011;57514;52.164;5.282;2023-02-21T14:26:42;39.97;;;15.73;;
70148;SDS011;57514;52.164;5.282;2023-02-21T14:29:12;39.50;;;15.98;;
70148;SDS011;57514;52.164;5.282;2023-02-21T14:34:29;38.97;;;14.98;;
70148;SDS011;57514;52.164;5.282;2023-02-21T14:37:00;42.90;;;17.13;;
70148;SDS011;57514;52.164;5.282;2023-02-21T14:39:32;33.92;;;13.63;;
70148;SDS011;57514;52.164;5.282;2023-02-21T14:44:34;47.78;;;16.35;;
70148;SDS011;57514;52.164;5.282;2023-02-21T15:02:40;38.58;;;14.85;;
70148;SDS011;57514;52.164;5.282;2023-02-21T15:10:04;36.58;;;14.60;;
70148;SDS011;57514;52.164;5.282;2023-02-21T15:12:34;33.67;;;13.80;;
70148;SDS011;57514;52.164;5.282;2023-02-21T15:17:29;26.75;;;11.27;;
70148;SDS011;57514;52.164;5.282;2023-02-21T15:20:04;19.92;;;8.82;;
70148;SDS011;57514;52.164;5.282;2023-02-21T15:22:33;23.23;;;10.63;;
70148;SDS011;57514;52.164;5.282;2023-02-21T15:25:11;29.40;;;13.05;;
70148;SDS011;57514;52.164;5.282;2023-02-21T15:30:15;16.17;;;6.97;;
70148;SDS011;57514;52.164;5.282;2023-02-21T15:32:43;17.55;;;8.05;;
70148;SDS011;57514;52.164;5.282;2023-02-21T15:35:20;20.17;;;9.30;;
70148;SDS011;57514;52.164;5.282;2023-02-21T15:37:48;20.00;;;9.07;;
70148;SDS011;57514;52.164;5.282;2023-02-21T15:40:20;22.33;;;8.98;;
70148;SDS011;57514;52.164;5.282;2023-02-21T15:42:49;14.52;;;6.75;;
70148;SDS011;57514;52.164;5.282;2023-02-21T15:47:44;18.70;;;8.68;;
70148;SDS011;57514;52.164;5.282;2023-02-21T15:50:13;17.35;;;7.22;;
70148;SDS011;57514;52.164;5.282;2023-02-21T15:52:44;18.40;;;7.57;;
70148;SDS011;57514;52.164;5.282;2023-02-21T16:00:15;19.80;;;9.00;;
70148;SDS011;57514;52.164;5.282;2023-02-21T16:02:43;22.55;;;10.85;;
70148;SDS011;57514;52.164;5.282;2023-02-21T16:05:24;24.85;;;11.50;;
70148;SDS011;57514;52.164;5.282;2023-02-21T16:07:52;20.10;;;7.88;;
70148;SDS011;57514;52.164;5.282;2023-02-21T16:10:20;19.90;;;10.38;;
70148;SDS011;57514;52.164;5.282;2023-02-21T16:12:55;20.08;;;9.98;;
70148;SDS011;57514;52.164;5.282;2023-02-21T16:15:25;25.50;;;15.05;;
70148;SDS011;57514;52.164;5.282;2023-02-21T16:17:56;23.88;;;11.75;;
70148;SDS011;57514;52.164;5.282;2023-02-21T16:20:28;32.17;;;16.60;;
70148;SDS011;57514;52.164;5.282;2023-02-21T16:23:13;24.17;;;10.88;;
70148;SDS011;57514;52.164;5.282;2023-02-21T16:28:36;22.85;;;9.35;;
70148;SDS011;57514;52.164;5.282;2023-02-21T16:31:07;20.40;;;10.27;;
70148;SDS011;57514;52.164;5.282;2023-02-21T16:33:34;23.45;;;10.68;;
70148;SDS011;57514;52.164;5.282;2023-02-21T16:36:06;30.33;;;13.88;;
70148;SDS011;57514;52.164;5.282;2023-02-21T16:38:34;20.17;;;9.85;;
70148;SDS011;57514;52.164;5.282;2023-02-21T16:41:01;13.63;;;6.35;;
70148;SDS011;57514;52.164;5.282;2023-02-21T16:43:29;22.05;;;8.93;;
70148;SDS011;57514;52.164;5.282;2023-02-21T16:45:57;23.75;;;11.02;;
70148;SDS011;57514;52.164;5.282;2023-02-21T16:48:25;23.52;;;11.27;;
70148;SDS011;57514;52.164;5.282;2023-02-21T16:50:58;22.23;;;9.00;;
70148;SDS011;57514;52.164;5.282;2023-02-21T16:53:29;22.95;;;11.73;;
70148;SDS011;57514;52.164;5.282;2023-02-21T16:55:57;23.38;;;11.05;;
70148;SDS011;57514;52.164;5.282;2023-02-21T16:58:29;24.15;;;11.23;;
70148;SDS011;57514;52.164;5.282;2023-02-21T17:00:58;16.10;;;8.02;;
70148;SDS011;57514;52.164;5.282;2023-02-21T17:03:53;24.95;;;12.10;;
70148;SDS011;57514;52.164;5.282;2023-02-21T17:06:21;20.73;;;9.30;;
70148;SDS011;57514;52.164;5.282;2023-02-21T17:08:50;19.48;;;9.25;;
70148;SDS011;57514;52.164;5.282;2023-02-21T17:11:17;24.05;;;10.27;;
70148;SDS011;57514;52.164;5.282;2023-02-21T17:13:45;22.52;;;10.15;;
70148;SDS011;57514;52.164;5.282;2023-02-21T17:16:16;20.42;;;9.43;;
70148;SDS011;57514;52.164;5.282;2023-02-21T17:18:43;22.08;;;10.20;;
70148;SDS011;57514;52.164;5.282;2023-02-21T17:21:11;22.55;;;9.82;;
70148;SDS011;57514;52.164;5.282;2023-02-21T17:23:39;24.75;;;10.45;;
70148;SDS011;57514;52.164;5.282;2023-02-21T17:26:07;16.98;;;7.07;;
70148;SDS011;57514;52.164;5.282;2023-02-21T17:28:36;27.20;;;11.68;;
70148;SDS011;57514;52.164;5.282;2023-02-21T17:31:04;32.58;;;14.80;;
70148;SDS011;57514;52.164;5.282;2023-02-21T17:33:32;30.27;;;15.07;;
70148;SDS011;57514;52.164;5.282;2023-02-21T17:36:00;25.40;;;12.52;;
70148;SDS011;57514;52.164;5.282;2023-02-21T17:38:28;26.77;;;14.98;;
70148;SDS011;57514;52.164;5.282;2023-02-21T17:40:55;19.75;;;8.40;;
70148;SDS011;57514;52.164;5.282;2023-02-21T17:43:22;21.75;;;9.85;;
70148;SDS011;57514;52.164;5.282;2023-02-21T17:45:49;22.08;;;11.07;;
70148;SDS011;57514;52.164;5.282;2023-02-21T17:48:17;21.35;;;8.98;;
70148;SDS011;57514;52.164;5.282;2023-02-21T17:50:44;23.05;;;9.98;;
70148;SDS011;57514;52.164;5.282;2023-02-21T17:53:11;26.83;;;11.30;;
70148;SDS011;57514;52.164;5.282;2023-02-21T17:55:39;20.90;;;9.27;;
70148;SDS011;57514;52.164;5.282;2023-02-21T17:58:06;23.60;;;9.90;;
70148;SDS011;57514;52.164;5.282;2023-02-21T18:00:35;27.08;;;11.48;;
70148;SDS011;57514;52.164;5.282;2023-02-21T18:03:02;27.58;;;12.23;;